createdAt,value
2023-04-16T00:01:35.829Z,101077.22
2023-04-16T00:04:08.892Z,101082.28
2023-04-16T00:06:47.204Z,101086.53
2023-04-16T00:09:28.466Z,101081.56
2023-04-16T00:12:07.265Z,101089.00
2023-04-16T00:14:46.136Z,101083.88
2023-04-16T00:17:18.791Z,101094.44
2023-04-16T00:19:50.548Z,101098.44
2023-04-16T00:22:27.041Z,101097.59
2023-04-16T00:25:04.357Z,101093.75
2023-04-16T00:27:49.272Z,101093.97
2023-04-16T00:30:23.285Z,101093.66
2023-04-16T00:33:00.925Z,101089.47
2023-04-16T00:35:35.490Z,101088.91
2023-04-16T00:38:11.413Z,101093.13
2023-04-16T00:40:48.496Z,101094.44
2023-04-16T00:43:33.767Z,101091.06
2023-04-16T00:46:11.971Z,101100.50
2023-04-16T00:48:49.462Z,101099.03
2023-04-16T00:51:22.843Z,101094.38
2023-04-16T00:53:55.773Z,101098.97
2023-04-16T00:56:34.447Z,101091.81
2023-04-16T00:59:09.231Z,101088.97
2023-04-16T01:01:42.796Z,101085.69
2023-04-16T01:04:15.139Z,101093.19
2023-04-16T01:06:47.848Z,101101.63
2023-04-16T01:09:20.414Z,101098.63
2023-04-16T01:11:52.783Z,101104.22
2023-04-16T01:14:40.840Z,101108.75
2023-04-16T01:17:16.086Z,101110.16
2023-04-16T01:19:48.121Z,101113.97
2023-04-16T01:22:27.892Z,101113.97
2023-04-16T01:25:03.331Z,101117.13
2023-04-16T01:27:38.065Z,101121.88
2023-04-16T01:30:11.707Z,101115.75
2023-04-16T01:32:44.110Z,101119.25
2023-04-16T01:35:18.636Z,101121.66
2023-04-16T01:37:54.446Z,101123.41
2023-04-16T01:40:26.579Z,101118.00
2023-04-16T01:42:59.345Z,101119.94
2023-04-16T01:45:31.770Z,101118.47
2023-04-16T01:48:04.759Z,101114.00
2023-04-16T01:50:38.299Z,101124.06
2023-04-16T01:53:13.713Z,101115.50
2023-04-16T01:55:46.202Z,101124.53
2023-04-16T01:58:19.099Z,101130.03
2023-04-16T02:00:51.309Z,101131.88
2023-04-16T02:03:25.397Z,101131.81
2023-04-16T02:06:00.186Z,101141.34
2023-04-16T02:08:36.065Z,101135.03
2023-04-16T02:11:11.654Z,101133.31
2023-04-16T02:16:32.052Z,101142.34
2023-04-16T02:19:05.052Z,101144.88
2023-04-16T02:21:37.366Z,101144.34
2023-04-16T02:24:12.773Z,101152.19
2023-04-16T14:04:37.471Z,101586.75
2023-04-16T14:07:10.675Z,101583.56
2023-04-16T14:09:42.169Z,101592.34
2023-04-16T14:12:14.372Z,101582.53
2023-04-16T14:14:47.461Z,101590.06
2023-04-16T14:17:20.817Z,101592.84
2023-04-16T14:19:56.007Z,101585.28
2023-04-16T14:22:28.178Z,101589.63
2023-04-16T14:24:59.832Z,101594.41
2023-04-16T14:27:33.067Z,101598.66
2023-04-16T14:30:04.712Z,101589.63
2023-04-16T14:32:44.952Z,101595.00
2023-04-16T14:35:20.462Z,101597.38
2023-04-16T14:37:55.465Z,101597.00
2023-04-16T14:40:26.654Z,101594.00
2023-04-16T14:42:58.266Z,101596.78
2023-04-16T14:45:31.123Z,101598.50
2023-04-16T14:48:02.547Z,101595.94
2023-04-16T14:50:38.359Z,101608.00
2023-04-16T14:53:09.892Z,101609.97
2023-04-16T14:55:42.211Z,101605.03
2023-04-16T14:58:14.076Z,101604.19
2023-04-16T15:00:45.961Z,101604.63
2023-04-16T15:03:17.972Z,101606.63
2023-04-16T15:05:55.915Z,101600.94
2023-04-16T15:08:28.292Z,101609.44
2023-04-16T15:11:00.000Z,101611.56
2023-04-16T15:13:34.475Z,101619.88
2023-04-16T15:16:07.735Z,101617.06
2023-04-16T15:18:39.677Z,101621.44
2023-04-16T15:21:13.877Z,101610.16
2023-04-16T15:23:46.141Z,101620.06
2023-04-16T15:26:17.707Z,101622.31
2023-04-16T15:28:49.692Z,101628.94
2023-04-16T15:31:21.320Z,101623.44
2023-04-16T15:33:53.423Z,101629.94
2023-04-16T15:36:27.641Z,101630.81
2023-04-16T15:38:59.512Z,101634.59
2023-04-16T15:41:37.015Z,101640.84
2023-04-16T15:44:09.330Z,101638.16
2023-04-16T15:46:40.687Z,101636.59
2023-04-16T15:49:12.734Z,101645.63
2023-04-16T15:51:47.325Z,101641.25
2023-04-16T15:54:19.654Z,101645.22
2023-04-16T15:56:51.268Z,101649.31
2023-04-16T15:59:23.045Z,101646.63
2023-04-16T16:01:54.937Z,101645.09
2023-04-16T16:04:27.113Z,101647.19
2023-04-16T16:07:03.059Z,101650.03
2023-04-16T16:09:35.054Z,101649.72
2023-04-16T16:12:06.717Z,101658.94
2023-04-16T16:14:38.829Z,101659.06
2023-04-16T16:17:13.011Z,101655.53
2023-04-16T16:19:46.405Z,101661.84
2023-04-16T16:22:24.164Z,101661.72
2023-04-16T16:24:58.335Z,101663.72
2023-04-16T16:27:30.080Z,101659.44
2023-04-16T16:30:05.050Z,101663.97
2023-04-16T16:32:37.126Z,101666.63
2023-04-16T16:35:11.225Z,101669.75
2023-04-16T16:37:46.076Z,101669.72
2023-04-16T16:40:18.219Z,101673.84
2023-04-16T16:42:50.118Z,101674.09
2023-04-16T16:45:22.733Z,101681.16
2023-04-16T16:47:55.041Z,101678.59
2023-04-16T16:50:27.251Z,101683.34
2023-04-16T16:53:01.536Z,101683.91
2023-04-16T16:55:35.546Z,101683.00
2023-04-16T16:58:07.562Z,101689.75
2023-04-16T17:00:39.840Z,101686.66
2023-04-16T17:03:12.802Z,101690.00
2023-04-16T17:05:45.384Z,101694.97
2023-04-16T17:08:19.670Z,101697.72
2023-04-16T17:10:51.992Z,101699.31
2023-04-16T17:13:25.620Z,101695.50
2023-04-16T17:15:57.575Z,101699.19
2023-04-16T17:18:29.680Z,101701.72
2023-04-16T17:21:02.131Z,101706.78
2023-04-16T17:23:36.732Z,101706.06
2023-04-16T17:26:09.199Z,101712.31
2023-04-16T17:28:41.025Z,101706.41
2023-04-16T17:31:13.428Z,101720.16
2023-04-16T17:33:45.532Z,101718.66
2023-04-16T17:36:19.951Z,101721.47
2023-04-16T17:38:54.329Z,101721.03
2023-04-16T17:41:26.890Z,101723.50
2023-04-16T17:43:58.935Z,101726.31
2023-04-16T17:46:31.129Z,101718.97
2023-04-16T17:49:02.821Z,101726.94
2023-04-16T17:51:34.685Z,101732.66
2023-04-16T17:54:09.232Z,101737.72
2023-04-16T17:56:41.316Z,101737.84
2023-04-16T17:59:12.828Z,101736.13
2023-04-16T18:01:45.287Z,101740.22
2023-04-16T18:04:18.822Z,101737.06
2023-04-16T18:06:51.245Z,101748.13
2023-04-16T18:09:25.184Z,101752.88
2023-04-16T18:11:58.061Z,101752.44
2023-04-16T18:14:29.488Z,101755.78
2023-04-16T18:17:03.695Z,101757.66
2023-04-16T18:19:37.052Z,101766.53
2023-04-16T18:22:09.197Z,101769.34
2023-04-16T18:24:43.292Z,101774.06
2023-04-16T18:27:15.137Z,101779.41
2023-04-16T18:29:46.728Z,101776.47
2023-04-16T18:32:18.542Z,101783.22
2023-04-16T18:34:50.404Z,101783.13
2023-04-16T18:37:22.424Z,101780.44
2023-04-16T18:39:57.914Z,101789.94
2023-04-16T18:42:33.144Z,101780.25
2023-04-16T18:45:06.259Z,101795.59
2023-04-16T18:47:37.899Z,101798.53
2023-04-16T18:50:12.190Z,101800.81
2023-04-16T18:52:44.842Z,101799.72
2023-04-16T18:55:19.626Z,101802.91
2023-04-16T18:57:52.170Z,101809.63
2023-04-16T19:00:24.566Z,101811.56
2023-04-16T19:02:56.841Z,101800.72
2023-04-16T19:05:29.587Z,101807.91
2023-04-16T19:08:02.418Z,101808.38
2023-04-16T19:10:37.308Z,101802.31
2023-04-16T19:13:09.849Z,101804.03
2023-04-16T19:15:41.884Z,101809.97
2023-04-16T19:18:14.316Z,101819.97
2023-04-16T19:20:46.268Z,101821.06
2023-04-16T19:23:19.558Z,101819.38
2023-04-16T19:25:56.650Z,101814.63
2023-04-16T19:28:29.507Z,101819.72
2023-04-16T19:31:01.421Z,101814.38
2023-04-16T19:33:33.772Z,101810.50
2023-04-16T19:36:05.873Z,101817.44
2023-04-16T19:38:38.258Z,101826.09
2023-04-16T19:41:12.877Z,101827.81
2023-04-16T19:43:46.817Z,101826.09
2023-04-16T19:46:18.988Z,101828.06
2023-04-16T19:48:53.813Z,101826.34
2023-04-16T19:51:28.193Z,101825.34
2023-04-16T19:54:02.199Z,101822.06
2023-04-16T19:56:38.830Z,101825.09
2023-04-16T19:59:11.770Z,101829.25
2023-04-16T20:01:45.116Z,101824.63
2023-04-16T20:04:19.013Z,101827.69
2023-04-16T20:06:54.052Z,101830.38
2023-04-16T20:09:29.698Z,101831.47
2023-04-16T20:12:04.910Z,101838.41
2023-04-16T20:14:37.590Z,101841.94
2023-04-16T20:17:10.442Z,101838.03
2023-04-16T20:19:52.107Z,101832.53
2023-04-16T20:22:24.555Z,101835.72
2023-04-16T20:24:58.450Z,101841.19
2023-04-16T20:27:33.326Z,101832.69
2023-04-16T20:30:06.823Z,101839.63
2023-04-16T20:32:39.366Z,101836.81
2023-04-16T20:35:14.606Z,101841.59
2023-04-16T20:37:46.988Z,101843.53
2023-04-16T20:40:19.788Z,101840.13
2023-04-16T20:42:57.767Z,101848.75
2023-04-16T20:45:33.128Z,101840.22
2023-04-16T20:48:05.701Z,101849.84
2023-04-16T20:50:38.569Z,101853.47
2023-04-16T20:53:16.208Z,101854.34
2023-04-16T20:55:49.888Z,101849.50
2023-04-16T20:58:25.631Z,101851.53
2023-04-16T21:00:59.612Z,101853.84
2023-04-16T21:03:32.168Z,101861.50
2023-04-16T21:06:06.790Z,101860.78
2023-04-16T21:08:39.612Z,101857.38
2023-04-16T21:11:12.855Z,101857.75
2023-04-16T21:13:48.032Z,101864.19
2023-04-16T21:16:20.709Z,101855.03
2023-04-16T21:18:52.691Z,101861.16
2023-04-16T21:21:25.270Z,101857.38
2023-04-16T21:23:58.057Z,101861.59
2023-04-16T21:26:32.020Z,101856.59
2023-04-16T21:29:07.460Z,101857.44
2023-04-16T21:31:40.046Z,101862.06
2023-04-16T21:34:12.031Z,101860.88
2023-04-16T21:36:44.496Z,101859.03
2023-04-16T21:39:17.800Z,101860.22
2023-04-16T21:41:51.733Z,101861.00
2023-04-16T21:44:26.371Z,101859.00
2023-04-16T21:46:58.879Z,101856.31
2023-04-16T21:49:30.855Z,101860.47
2023-04-16T21:52:06.696Z,101856.94
2023-04-16T21:54:38.872Z,101866.03
2023-04-16T21:57:15.154Z,101864.94
2023-04-16T21:59:49.671Z,101871.63
2023-04-16T22:02:22.346Z,101868.53
2023-04-16T22:04:54.509Z,101861.66
2023-04-16T22:07:29.492Z,101863.47
2023-04-16T22:10:01.379Z,101870.91
2023-04-16T22:12:34.073Z,101868.59
2023-04-16T22:15:10.953Z,101859.81
2023-04-16T22:17:44.148Z,101868.66
2023-04-16T22:20:16.791Z,101877.81
2023-04-16T22:22:49.471Z,101873.75
2023-04-16T22:25:21.332Z,101869.97
2023-04-16T22:27:53.564Z,101876.28
2023-04-16T22:30:28.377Z,101869.84
2023-04-16T22:33:01.368Z,101871.56
2023-04-16T22:35:33.396Z,101883.78
2023-04-16T22:38:05.953Z,101876.75
2023-04-16T22:40:37.897Z,101880.28
2023-04-16T22:43:10.414Z,101880.84
2023-04-16T22:45:46.574Z,101876.19
2023-04-16T22:48:19.130Z,101887.22
2023-04-16T22:50:54.750Z,101876.97
2023-04-16T22:53:27.110Z,101878.78
2023-04-16T22:55:58.999Z,101885.50
2023-04-16T22:58:34.147Z,101874.75
2023-04-16T23:01:09.238Z,101882.88
2023-04-16T23:03:41.686Z,101882.53
2023-04-16T23:06:13.511Z,101880.09
2023-04-16T23:08:47.495Z,101884.91
2023-04-16T23:11:19.418Z,101881.34
2023-04-16T23:13:52.238Z,101885.63
2023-04-16T23:16:27.618Z,101880.53
2023-04-16T23:19:00.188Z,101890.06
2023-04-16T23:21:32.893Z,101885.78
2023-04-16T23:24:05.917Z,101882.66
2023-04-16T23:26:38.116Z,101888.44
2023-04-16T23:29:11.024Z,101885.13
2023-04-16T23:31:46.265Z,101885.19
2023-04-16T23:34:19.151Z,101883.06
2023-04-16T23:36:51.380Z,101888.41
2023-04-16T23:39:24.131Z,101884.44
2023-04-16T23:41:57.546Z,101892.69
2023-04-16T23:44:30.353Z,101886.69
2023-04-16T23:47:05.849Z,101877.81
2023-04-16T23:49:39.451Z,101888.00
2023-04-16T23:52:11.861Z,101881.69
2023-04-16T23:54:44.592Z,101884.38
2023-04-16T23:57:16.919Z,101886.88
2023-04-16T23:59:49.708Z,101894.31
